Time;durP1;ratioP1;P1;durP2;ratioP2;P2;SDS_P1;SDS_P2;PMS_P1;PMS_P2;Temp;Humidity;BMP_temperature;BMP_pressure;BME280_temperature;BME280_humidity;BME280_pressure;Samples;Min_cycle;Max_cycle;Signal;HPM_P1;HPM_P2
2021/06/27 00:02:14;;;;;;;7.10;6.50;;;19.40;99.90;;;;;;5031115;28;20449;-60
2021/06/27 00:04:41;;;;;;;7.03;6.33;;;19.30;99.90;;;;;;5030820;28;20650;-60
2021/06/27 00:07:08;;;;;;;7.97;6.50;;;19.30;99.90;;;;;;5031078;28;20550;-59
2021/06/27 00:09:35;;;;;;;8.57;6.60;;;19.30;99.90;;;;;;5031277;28;20492;-60
2021/06/27 00:12:04;;;;;;;7.17;6.47;;;19.30;99.90;;;;;;5027268;28;20522;-59
2021/06/27 00:14:31;;;;;;;7.43;6.73;;;19.30;99.90;;;;;;5030636;28;20958;-60
2021/06/27 00:16:58;;;;;;;7.17;6.47;;;19.30;99.90;;;;;;5031215;28;20479;-59
2021/06/27 00:19:25;;;;;;;8.20;7.20;;;19.20;99.90;;;;;;5031024;28;20445;-60
2021/06/27 00:21:52;;;;;;;7.10;6.40;;;19.20;99.90;;;;;;5030247;28;20510;-59
2021/06/27 00:24:19;;;;;;;12.90;7.33;;;19.20;99.90;;;;;;5033455;28;20803;-59
2021/06/27 00:26:47;;;;;;;8.97;8.07;;;19.20;99.90;;;;;;5034915;28;20467;-60
2021/06/27 00:29:15;;;;;;;7.90;7.10;;;19.20;99.90;;;;;;5034683;28;20567;-59
2021/06/27 00:31:42;;;;;;;9.20;8.27;;;19.20;99.90;;;;;;5034274;28;20461;-60
2021/06/27 00:34:09;;;;;;;8.30;7.30;;;19.10;99.90;;;;;;5034022;28;20444;-58
2021/06/27 00:36:36;;;;;;;9.07;8.20;;;19.10;99.90;;;;;;5034383;28;20541;-59
2021/06/27 00:39:04;;;;;;;9.83;7.93;;;19.10;99.90;;;;;;5034590;28;20448;-59
2021/06/27 00:41:31;;;;;;;8.53;7.73;;;19.00;99.90;;;;;;5034120;28;20452;-59
2021/06/27 00:43:59;;;;;;;8.40;7.60;;;19.00;99.90;;;;;;5034281;28;20962;-60
2021/06/27 00:46:27;;;;;;;10.87;8.30;;;19.00;99.90;;;;;;5034444;28;20926;-59
2021/06/27 00:48:54;;;;;;;12.90;8.00;;;19.00;99.90;;;;;;5034121;28;20878;-60
2021/06/27 00:51:22;;;;;;;9.77;8.23;;;19.00;99.90;;;;;;5034224;28;20508;-58
2021/06/27 00:53:50;;;;;;;9.87;7.60;;;19.00;99.90;;;;;;5034191;28;20459;-59
2021/06/27 00:56:17;;;;;;;8.47;7.67;;;19.00;99.90;;;;;;5034038;28;20504;-59
2021/06/27 00:58:45;;;;;;;10.00;7.17;;;19.00;99.90;;;;;;5034392;28;20499;-60
2021/06/27 01:01:12;;;;;;;7.60;6.80;;;18.90;99.90;;;;;;5034015;28;20518;-59
2021/06/27 01:03:40;;;;;;;7.90;6.53;;;19.00;99.90;;;;;;5033259;28;20455;-59
2021/06/27 01:06:08;;;;;;;8.37;7.50;;;19.00;99.90;;;;;;5033891;28;21072;-59
2021/06/27 01:08:35;;;;;;;7.40;6.70;;;19.00;99.90;;;;;;5034200;28;20480;-60
2021/06/27 01:11:02;;;;;;;7.60;6.90;;;19.00;99.90;;;;;;5033345;28;20449;-59
2021/06/27 01:13:29;;;;;;;7.33;6.63;;;19.00;99.90;;;;;;5033001;28;21040;-60
2021/06/27 01:15:56;;;;;;;8.00;7.17;;;18.90;99.90;;;;;;5032802;28;20457;-58
2021/06/27 01:18:23;;;;;;;8.27;7.47;;;18.90;99.90;;;;;;5033667;28;20449;-59
2021/06/27 01:20:51;;;;;;;8.70;7.63;;;18.90;99.90;;;;;;5033046;28;20947;-59
2021/06/27 01:23:20;;;;;;;7.80;6.93;;;18.90;99.90;;;;;;5033389;28;20452;-59
2021/06/27 01:25:51;;;;;;;9.37;7.63;;;18.90;99.90;;;;;;5033870;28;20456;-60
2021/06/27 01:28:18;;;;;;;8.30;7.50;;;18.90;99.90;;;;;;5033691;28;20488;-59
2021/06/27 01:30:46;;;;;;;7.50;6.77;;;18.90;99.90;;;;;;5033278;28;20510;-61
2021/06/27 01:33:16;;;;;;;7.30;6.60;;;18.90;99.90;;;;;;5033339;28;20461;-59
2021/06/27 01:35:44;;;;;;;7.00;6.30;;;18.80;99.90;;;;;;5033536;28;20449;-59
2021/06/27 01:38:12;;;;;;;8.20;7.40;;;18.90;99.90;;;;;;5033472;28;20464;-59
2021/06/27 01:40:41;;;;;;;11.13;7.10;;;18.90;99.90;;;;;;5031957;28;20452;-59
2021/06/27 01:43:11;;;;;;;6.53;5.93;;;18.80;99.90;;;;;;5032765;28;20506;-59
2021/06/27 01:45:39;;;;;;;7.20;6.50;;;18.70;99.90;;;;;;5033950;28;20452;-59
2021/06/27 01:48:09;;;;;;;7.07;6.37;;;18.60;99.90;;;;;;5033161;28;20530;-59
2021/06/27 01:50:37;;;;;;;6.73;6.13;;;18.60;99.90;;;;;;5033040;28;20456;-59
2021/06/27 01:53:05;;;;;;;6.90;6.07;;;18.60;99.90;;;;;;5032403;28;20460;-60
2021/06/27 01:55:32;;;;;;;6.87;6.17;;;18.70;99.90;;;;;;5032939;28;20514;-59
2021/06/27 01:58:00;;;;;;;7.50;5.87;;;18.70;99.90;;;;;;5033126;28;20472;-60
2021/06/27 02:00:29;;;;;;;8.53;7.00;;;18.70;99.90;;;;;;5032618;28;20449;-59
2021/06/27 02:02:56;;;;;;;7.10;6.40;;;18.70;99.90;;;;;;5032359;28;20875;-61
2021/06/27 02:05:24;;;;;;;9.47;7.10;;;18.60;99.90;;;;;;5033099;28;20448;-59
2021/06/27 02:07:51;;;;;;;7.70;7.00;;;18.60;99.90;;;;;;5032537;28;20507;-59
2021/06/27 02:10:21;;;;;;;9.50;7.50;;;18.50;99.90;;;;;;5032690;28;20484;-59
2021/06/27 02:12:49;;;;;;;7.63;6.90;;;18.50;99.90;;;;;;5031850;28;20506;-59
2021/06/27 02:15:17;;;;;;;7.90;6.53;;;18.50;99.90;;;;;;5033120;28;20460;-59
2021/06/27 02:17:54;;;;;;;7.37;6.67;;;18.60;99.90;;;;;;5032792;28;20893;-59
2021/06/27 02:20:21;;;;;;;7.27;6.43;;;18.50;99.90;;;;;;5032481;28;20456;-59
2021/06/27 02:22:49;;;;;;;6.67;6.03;;;18.40;99.90;;;;;;5031448;28;20448;-59
2021/06/27 02:25:16;;;;;;;7.23;6.53;;;18.40;99.90;;;;;;5032901;28;20511;-59
2021/06/27 02:27:43;;;;;;;7.40;6.63;;;18.40;99.90;;;;;;5032766;28;20477;-59
2021/06/27 02:30:12;;;;;;;7.57;6.37;;;18.40;99.90;;;;;;5031860;28;20484;-58
2021/06/27 02:32:40;;;;;;;8.63;7.40;;;18.30;99.90;;;;;;5032322;28;20461;-59
2021/06/27 02:35:09;;;;;;;7.77;6.97;;;18.20;99.90;;;;;;5013767;28;20457;-59
2021/06/27 02:37:37;;;;;;;8.00;7.20;;;18.20;99.90;;;;;;5012642;28;20466;-59
2021/06/27 02:40:06;;;;;;;6.93;6.20;;;18.20;99.90;;;;;;5016582;28;20946;-59
2021/06/27 02:42:33;;;;;;;7.93;7.13;;;18.20;99.90;;;;;;5032313;28;20514;-59
2021/06/27 02:45:00;;;;;;;9.83;7.70;;;18.20;99.90;;;;;;5032047;28;20503;-60
2021/06/27 02:47:28;;;;;;;7.60;6.90;;;18.10;99.90;;;;;;5031492;28;20468;-59
2021/06/27 02:49:56;;;;;;;10.03;8.30;;;18.20;99.90;;;;;;5031753;28;20480;-59
2021/06/27 02:52:23;;;;;;;8.20;7.33;;;18.20;99.90;;;;;;5031358;28;20520;-58
2021/06/27 02:54:50;;;;;;;7.53;6.83;;;18.20;99.90;;;;;;5032094;28;20510;-59
2021/06/27 02:57:17;;;;;;;8.70;7.67;;;18.10;99.90;;;;;;5032147;28;20473;-59
2021/06/27 02:59:44;;;;;;;8.47;7.27;;;18.20;99.90;;;;;;5031514;28;20495;-59
2021/06/27 03:02:11;;;;;;;7.40;6.70;;;18.10;99.90;;;;;;5031749;28;20444;-59
2021/06/27 03:04:38;;;;;;;7.93;7.17;;;18.10;99.90;;;;;;5031134;28;20445;-59
2021/06/27 03:07:06;;;;;;;7.60;6.80;;;18.00;99.90;;;;;;5031714;28;20603;-58
2021/06/27 03:09:33;;;;;;;7.00;6.17;;;18.00;99.90;;;;;;5032041;28;20557;-58
2021/06/27 03:12:00;;;;;;;7.00;6.40;;;18.10;99.90;;;;;;5031337;28;20456;-59
2021/06/27 03:14:27;;;;;;;6.50;5.90;;;18.00;99.90;;;;;;5019565;28;20955;-60
2021/06/27 03:16:54;;;;;;;6.73;6.07;;;18.10;99.90;;;;;;5031184;28;21029;-59
2021/06/27 03:19:21;;;;;;;6.27;5.67;;;18.10;99.90;;;;;;5031494;28;20449;-60
2021/06/27 03:21:48;;;;;;;9.20;6.70;;;18.10;99.90;;;;;;5031207;28;20453;-59
2021/06/27 03:24:16;;;;;;;7.50;6.80;;;18.20;99.90;;;;;;5031554;28;20448;-59
2021/06/27 03:26:43;;;;;;;8.13;7.27;;;18.20;99.90;;;;;;5031716;28;20477;-58
2021/06/27 03:29:10;;;;;;;10.53;8.30;;;18.10;99.90;;;;;;5031039;28;20484;-59
2021/06/27 03:31:37;;;;;;;7.80;6.77;;;18.10;99.90;;;;;;5030839;28;20452;-59
2021/06/27 03:34:04;;;;;;;8.57;7.67;;;18.10;99.90;;;;;;5031408;28;20456;-59
2021/06/27 03:36:33;;;;;;;7.20;6.30;;;18.10;99.90;;;;;;5031320;28;20542;-59
2021/06/27 03:39:05;;;;;;;8.47;7.67;;;18.10;99.90;;;;;;5031696;28;20452;-58
2021/06/27 03:41:40;;;;;;;8.07;7.27;;;18.10;99.90;;;;;;5030690;28;20966;-59
2021/06/27 03:44:07;;;;;;;7.97;7.17;;;18.10;99.90;;;;;;5031275;28;20560;-59
2021/06/27 03:46:36;;;;;;;8.00;7.20;;;18.10;99.90;;;;;;5031377;28;20892;-58
2021/06/27 03:49:04;;;;;;;7.63;6.83;;;18.10;99.90;;;;;;5031525;28;20480;-60
2021/06/27 03:51:34;;;;;;;7.00;6.40;;;18.20;99.90;;;;;;5030953;28;20955;-59
2021/06/27 03:54:01;;;;;;;7.43;6.73;;;18.10;99.90;;;;;;5031180;28;20527;-60
2021/06/27 03:56:28;;;;;;;8.20;7.00;;;18.20;99.90;;;;;;5031634;28;20543;-59
2021/06/27 03:58:56;;;;;;;7.23;6.53;;;18.30;99.90;;;;;;5032491;28;20977;-59
2021/06/27 04:01:23;;;;;;;6.23;5.63;;;18.30;99.90;;;;;;5034961;28;20457;-59
2021/06/27 04:03:50;;;;;;;8.07;7.00;;;18.30;99.90;;;;;;5035046;28;20452;-59
2021/06/27 04:06:17;;;;;;;6.53;5.93;;;18.30;99.90;;;;;;5035176;28;20483;-59
2021/06/27 04:08:45;;;;;;;6.90;6.20;;;18.40;99.90;;;;;;5035221;28;20457;-59
2021/06/27 04:11:12;;;;;;;7.33;5.90;;;18.40;99.90;;;;;;5032602;28;20456;-60
2021/06/27 04:13:39;;;;;;;7.83;6.10;;;18.40;99.90;;;;;;5015275;28;21017;-59
2021/06/27 04:16:08;;;;;;;11.20;6.40;;;18.40;99.90;;;;;;5015388;28;20503;-59
2021/06/27 04:18:36;;;;;;;6.20;5.70;;;18.40;99.90;;;;;;5019123;28;20865;-59
2021/06/27 04:21:05;;;;;;;7.03;6.00;;;18.40;99.90;;;;;;5026040;28;20456;-59
2021/06/27 04:23:34;;;;;;;6.70;6.10;;;18.40;99.90;;;;;;5015090;28;20492;-59
2021/06/27 04:26:01;;;;;;;5.80;5.30;;;18.40;99.90;;;;;;5015252;28;20453;-59
2021/06/27 04:28:28;;;;;;;7.40;5.97;;;18.50;99.90;;;;;;5030046;28;20444;-59
2021/06/27 04:30:55;;;;;;;5.87;5.30;;;18.60;99.90;;;;;;5033191;28;20472;-59
2021/06/27 04:33:24;;;;;;;5.67;5.17;;;18.70;99.90;;;;;;5033226;28;20465;-60
2021/06/27 04:35:51;;;;;;;6.37;5.87;;;18.70;99.90;;;;;;5026160;28;20478;-60
2021/06/27 04:38:18;;;;;;;6.27;5.00;;;18.80;99.90;;;;;;5027411;28;20488;-59
2021/06/27 04:40:46;;;;;;;8.43;5.60;;;18.90;99.90;;;;;;5033017;28;20451;-58
2021/06/27 04:43:13;;;;;;;5.90;5.40;;;18.90;99.90;;;;;;5032818;28;20453;-59
2021/06/27 04:45:42;;;;;;;8.13;6.07;;;19.00;99.90;;;;;;5033387;28;20821;-59
2021/06/27 04:48:09;;;;;;;6.57;5.00;;;19.00;99.90;;;;;;5032685;28;20538;-60
2021/06/27 04:50:39;;;;;;;7.40;6.03;;;19.10;99.90;;;;;;5032147;28;20545;-58
2021/06/27 04:53:12;;;;;;;7.20;5.90;;;19.10;99.90;;;;;;5033053;28;20449;-59
2021/06/27 04:55:39;;;;;;;7.20;6.50;;;19.20;99.90;;;;;;5033629;28;20436;-60
2021/06/27 04:58:06;;;;;;;7.60;6.27;;;19.20;99.90;;;;;;5032744;28;20473;-59
2021/06/27 05:00:33;;;;;;;6.93;6.27;;;19.40;99.90;;;;;;5032867;28;20441;-59
2021/06/27 05:03:01;;;;;;;7.00;6.30;;;19.40;99.90;;;;;;5032792;28;20440;-59
2021/06/27 05:05:28;;;;;;;6.73;5.97;;;19.40;99.90;;;;;;5033460;28;20445;-59
2021/06/27 05:07:57;;;;;;;6.13;5.60;;;19.40;99.90;;;;;;5070323;22;20499;-51
2021/06/27 05:10:24;;;;;;;6.03;5.50;;;19.60;99.90;;;;;;5035332;28;20538;-49
2021/06/27 05:12:51;;;;;;;6.83;5.90;;;19.80;99.90;;;;;;5057244;28;20451;-50
2021/06/27 05:15:18;;;;;;;5.27;4.60;;;19.90;99.90;;;;;;5052422;28;20455;-50
2021/06/27 05:17:45;;;;;;;6.10;5.50;;;20.10;99.90;;;;;;5051498;28;20476;-50
2021/06/27 05:20:13;;;;;;;5.93;4.67;;;20.40;99.90;;;;;;5052903;28;20879;-50
2021/06/27 05:22:40;;;;;;;5.37;4.90;;;20.80;99.90;;;;;;5052949;28;20447;-50
2021/06/27 05:25:11;;;;;;;4.93;4.53;;;20.90;99.90;;;;;;5053034;28;20531;-50
2021/06/27 05:27:39;;;;;;;5.27;4.77;;;20.90;99.90;;;;;;5049399;28;20464;-51
2021/06/27 05:30:08;;;;;;;5.13;4.63;;;21.00;99.90;;;;;;5052728;28;20483;-50
2021/06/27 05:32:35;;;;;;;4.30;3.93;;;21.60;99.90;;;;;;5052254;28;20514;-51
2021/06/27 05:35:03;;;;;;;5.43;4.17;;;22.80;99.90;;;;;;5052810;28;20452;-50
2021/06/27 05:37:29;;;;;;;3.97;3.67;;;24.30;99.90;;;;;;5052492;28;21075;-50
2021/06/27 05:39:56;;;;;;;5.03;4.60;;;25.60;99.90;;;;;;5065057;28;21026;-50
2021/06/27 05:42:25;;;;;;;4.30;4.00;;;26.80;99.90;;;;;;5052455;28;20444;-50
2021/06/27 05:44:52;;;;;;;4.80;4.40;;;27.60;99.90;;;;;;5052799;28;20502;-51
2021/06/27 05:47:19;;;;;;;4.37;4.07;;;28.30;99.90;;;;;;5060218;28;20544;-51
2021/06/27 05:49:46;;;;;;;4.80;4.40;;;29.00;99.90;;;;;;5071038;28;20984;-51
2021/06/27 05:52:13;;;;;;;6.40;4.60;;;29.20;99.90;;;;;;5054494;28;21013;-51
2021/06/27 05:54:39;;;;;;;5.07;4.67;;;29.10;99.90;;;;;;5052254;28;20452;-50
2021/06/27 05:57:07;;;;;;;5.10;4.70;;;29.00;99.90;;;;;;5057040;28;20479;-51
2021/06/27 05:59:36;;;;;;;4.53;4.13;;;28.90;99.90;;;;;;5055932;28;20446;-51
2021/06/27 06:02:03;;;;;;;3.50;3.30;;;28.60;99.90;;;;;;5070944;28;20447;-51
2021/06/27 06:04:30;;;;;;;3.50;3.30;;;28.90;99.90;;;;;;5070968;28;20458;-51
2021/06/27 06:06:57;;;;;;;4.70;3.53;;;28.60;99.90;;;;;;5066696;28;20471;-51
2021/06/27 06:09:24;;;;;;;3.63;3.33;;;28.40;99.90;;;;;;5051727;28;20444;-50
2021/06/27 06:11:50;;;;;;;3.50;3.30;;;28.20;99.90;;;;;;5052532;28;20491;-51
2021/06/27 06:14:18;;;;;;;3.70;3.40;;;28.00;99.90;;;;;;5047983;28;20464;-50
2021/06/27 06:16:47;;;;;;;3.80;3.50;;;27.20;99.90;;;;;;5052016;28;20472;-50
2021/06/27 06:19:17;;;;;;;3.40;3.20;;;26.50;99.90;;;;;;5052244;28;20539;-50
2021/06/27 06:21:45;;;;;;;3.70;3.40;;;26.10;99.90;;;;;;5051206;28;20463;-50
2021/06/27 06:24:12;;;;;;;3.73;3.43;;;25.90;99.90;;;;;;5052310;28;20447;-51
2021/06/27 06:26:40;;;;;;;4.00;3.70;;;25.80;99.90;;;;;;5051991;28;20471;-51
2021/06/27 06:29:07;;;;;;;3.63;3.33;;;25.90;99.90;;;;;;5051985;28;20470;-50
2021/06/27 06:31:37;;;;;;;3.97;3.67;;;26.00;99.90;;;;;;5052067;28;20491;-51
2021/06/27 06:34:06;;;;;;;3.80;3.50;;;26.50;99.90;;;;;;5051702;28;20463;-51
2021/06/27 06:36:33;;;;;;;4.27;3.87;;;27.10;99.90;;;;;;5051516;28;20505;-51
2021/06/27 06:39:00;;;;;;;3.70;3.40;;;27.50;99.90;;;;;;5051301;28;20843;-50
2021/06/27 06:41:27;;;;;;;3.53;3.33;;;28.00;99.90;;;;;;5051262;28;20895;-51
2021/06/27 06:43:55;;;;;;;3.40;3.10;;;28.60;99.90;;;;;;5051892;28;20894;-51
2021/06/27 06:46:22;;;;;;;3.40;3.20;;;28.90;99.90;;;;;;5051395;28;20452;-50
2021/06/27 06:48:49;;;;;;;3.60;3.30;;;28.80;99.90;;;;;;5051602;28;20451;-50
2021/06/27 06:51:20;;;;;;;3.50;3.30;;;28.70;99.90;;;;;;5051420;28;20487;-51
2021/06/27 06:53:47;;;;;;;3.27;3.07;;;28.40;99.90;;;;;;5051754;28;20989;-51
2021/06/27 06:56:14;;;;;;;3.33;2.90;;;28.90;99.90;;;;;;5051532;28;20455;-51
2021/06/27 06:58:41;;;;;;;3.40;3.10;;;29.10;99.90;;;;;;5051357;28;20447;-51
2021/06/27 07:01:08;;;;;;;3.07;2.87;;;29.40;99.90;;;;;;5051447;28;20972;-50
2021/06/27 07:03:36;;;;;;;3.70;3.20;;;29.70;99.90;;;;;;5051749;28;20447;-51
2021/06/27 07:06:03;;;;;;;2.83;2.67;;;30.00;99.90;;;;;;5052779;28;20538;-51
2021/06/27 07:08:31;;;;;;;4.73;3.20;;;29.70;99.90;;;;;;5047897;28;21072;-51
2021/06/27 07:10:59;;;;;;;3.20;3.00;;;30.30;99.90;;;;;;5050964;28;20549;-51
2021/06/27 07:13:26;;;;;;;3.60;3.30;;;29.70;99.90;;;;;;5050496;28;20448;-52
2021/06/27 07:15:53;;;;;;;3.50;3.30;;;29.90;99.90;;;;;;5049599;28;20513;-51
2021/06/27 07:18:20;;;;;;;3.30;3.10;;;30.70;99.90;;;;;;5050348;28;21009;-52
2021/06/27 07:20:47;;;;;;;3.40;3.10;;;31.10;99.90;;;;;;5051150;28;20558;-52
2021/06/27 07:23:14;;;;;;;4.43;3.17;;;31.60;99.90;;;;;;5049863;28;20995;-51
2021/06/27 07:25:42;;;;;;;4.20;3.37;;;31.70;99.90;;;;;;5051063;28;20451;-52
2021/06/27 07:28:09;;;;;;;3.37;3.17;;;31.40;99.90;;;;;;5056803;28;20470;-51
2021/06/27 07:30:36;;;;;;;3.83;3.53;;;31.60;98.70;;;;;;5050434;28;20483;-51
2021/06/27 07:33:04;;;;;;;3.83;3.10;;;32.10;99.90;;;;;;5050524;28;20494;-51
2021/06/27 07:35:31;;;;;;;3.60;3.40;;;31.40;99.90;;;;;;5051207;28;20537;-51
2021/06/27 07:37:58;;;;;;;3.47;3.27;;;31.50;99.70;;;;;;5050598;28;20476;-51
2021/06/27 07:40:25;;;;;;;3.30;3.10;;;32.00;98.70;;;;;;5049794;28;20455;-50
2021/06/27 07:42:54;;;;;;;3.80;3.60;;;32.40;97.20;;;;;;5050318;28;20872;-50
2021/06/27 07:45:21;;;;;;;3.63;3.37;;;31.60;98.70;;;;;;5047174;28;20916;-52
2021/06/27 07:47:48;;;;;;;3.20;3.00;;;30.70;99.90;;;;;;5050605;28;20474;-51
2021/06/27 07:50:15;;;;;;;3.63;3.43;;;31.30;98.90;;;;;;5050872;28;20517;-52
2021/06/27 07:52:42;;;;;;;3.40;3.20;;;31.50;97.60;;;;;;5052416;28;20494;-50
2021/06/27 07:55:10;;;;;;;4.70;3.37;;;32.00;98.10;;;;;;5050479;28;20448;-52
2021/06/27 07:57:37;;;;;;;3.60;3.40;;;32.60;98.80;;;;;;5031533;28;20526;-52
2021/06/27 08:00:08;;;;;;;3.53;3.23;;;32.80;97.00;;;;;;5031593;28;20510;-52
2021/06/27 08:02:36;;;;;;;3.63;3.40;;;33.10;97.50;;;;;;5034196;28;20509;-51
2021/06/27 08:05:03;;;;;;;3.60;3.27;;;32.50;96.30;;;;;;5050659;28;20448;-51
2021/06/27 08:07:30;;;;;;;4.87;4.40;;;32.70;94.90;;;;;;5050692;28;20480;-52
2021/06/27 08:09:57;;;;;;;3.70;3.50;;;31.90;97.80;;;;;;5050875;28;20452;-51
2021/06/27 08:12:24;;;;;;;3.60;3.40;;;30.40;99.40;;;;;;5050078;28;20850;-52
2021/06/27 08:14:51;;;;;;;3.10;2.90;;;30.80;97.80;;;;;;5050717;28;20574;-51
2021/06/27 08:17:19;;;;;;;3.73;3.53;;;31.60;98.10;;;;;;5052079;28;20989;-52
2021/06/27 08:19:47;;;;;;;4.30;4.00;;;31.20;98.10;;;;;;5058134;28;20521;-52
2021/06/27 08:22:14;;;;;;;3.50;3.27;;;32.00;97.60;;;;;;5048308;28;20450;-52
2021/06/27 08:24:42;;;;;;;4.13;3.87;;;32.40;95.60;;;;;;5049655;28;20513;-51
2021/06/27 08:27:10;;;;;;;3.60;3.40;;;31.60;95.50;;;;;;5050822;28;20871;-51
2021/06/27 08:29:38;;;;;;;3.70;3.40;;;32.00;97.40;;;;;;5050023;28;20451;-51
2021/06/27 08:32:06;;;;;;;4.10;3.80;;;32.10;97.20;;;;;;5050614;28;20483;-51
2021/06/27 08:34:34;;;;;;;3.80;3.60;;;31.50;96.40;;;;;;5049684;28;20452;-51
2021/06/27 08:37:01;;;;;;;4.53;4.23;;;31.50;97.60;;;;;;5050263;28;20464;-51
2021/06/27 08:39:28;;;;;;;4.40;4.00;;;31.10;97.80;;;;;;5050525;28;20448;-51
2021/06/27 08:41:56;;;;;;;4.07;3.67;;;30.60;99.00;;;;;;5058009;28;21309;-51
2021/06/27 08:44:23;;;;;;;5.27;3.47;;;30.30;99.90;;;;;;5055328;28;20454;-51
2021/06/27 08:46:51;;;;;;;4.63;4.30;;;30.40;99.70;;;;;;5056841;28;20471;-50
2021/06/27 08:49:20;;;;;;;4.30;4.00;;;30.60;98.20;;;;;;5053402;28;20550;-51
2021/06/27 08:51:48;;;;;;;4.23;3.93;;;30.50;99.90;;;;;;5052821;28;20491;-51
2021/06/27 08:54:15;;;;;;;4.83;4.53;;;31.10;99.90;;;;;;5052560;28;20953;-52
2021/06/27 08:56:43;;;;;;;7.87;5.10;;;31.70;99.70;;;;;;5052810;28;20494;-51
2021/06/27 08:59:10;;;;;;;6.97;6.40;;;30.80;99.90;;;;;;5057726;28;20451;-51
2021/06/27 09:01:36;;;;;;;6.67;6.07;;;28.90;99.90;;;;;;5053803;28;20439;-51
2021/06/27 09:04:03;;;;;;;5.63;5.23;;;28.40;99.90;;;;;;5053608;28;20452;-51
2021/06/27 09:06:36;;;;;;;5.50;5.00;;;28.80;99.90;;;;;;5053549;28;20849;-51
2021/06/27 09:09:12;;;;;;;5.13;4.73;;;29.90;99.90;;;;;;5053863;28;20454;-51
2021/06/27 09:11:40;;;;;;;4.73;4.43;;;29.90;99.90;;;;;;5050486;28;20905;-51
2021/06/27 09:14:27;;;;;;;6.20;5.23;;;30.80;99.90;;;;;;5053192;28;20509;-52
2021/06/27 09:17:06;;;;;;;5.67;4.90;;;30.90;99.90;;;;;;5051024;28;20552;-51
2021/06/27 09:19:55;;;;;;;6.33;5.80;;;30.30;99.90;;;;;;5053873;28;20455;-51
2021/06/27 09:22:23;;;;;;;6.70;6.10;;;29.40;99.90;;;;;;5072526;28;20818;-51
2021/06/27 09:24:52;;;;;;;7.00;6.30;;;29.40;99.90;;;;;;5054317;28;20444;-52
2021/06/27 09:27:20;;;;;;;6.47;5.80;;;30.10;99.90;;;;;;5054507;28;21051;-51
2021/06/27 09:29:48;;;;;;;7.37;6.63;;;29.90;99.90;;;;;;5053687;28;20795;-52
2021/06/27 09:32:16;;;;;;;7.03;6.43;;;29.60;99.90;;;;;;5054577;28;20476;-52
2021/06/27 09:34:44;;;;;;;8.37;7.67;;;30.30;99.90;;;;;;5057041;28;20871;-52
2021/06/27 09:37:12;;;;;;;7.83;7.07;;;30.70;99.90;;;;;;5055271;28;20544;-52
2021/06/27 09:39:56;;;;;;;8.40;7.60;;;30.90;99.90;;;;;;5057522;28;20528;-51
2021/06/27 09:42:23;;;;;;;8.57;7.77;;;29.50;99.90;;;;;;5071393;28;20541;-51
2021/06/27 09:45:01;;;;;;;7.47;6.80;;;29.00;99.90;;;;;;5052986;28;20451;-51
2021/06/27 09:47:28;;;;;;;8.47;7.60;;;28.80;99.90;;;;;;5052591;28;20471;-51
2021/06/27 09:49:55;;;;;;;9.17;6.90;;;28.70;99.90;;;;;;5052661;28;20929;-51
2021/06/27 09:52:36;;;;;;;8.40;7.57;;;29.00;99.90;;;;;;5052230;28;21245;-51
2021/06/27 09:55:09;;;;;;;7.63;6.90;;;28.30;99.90;;;;;;5048988;28;20468;-52
2021/06/27 09:57:36;;;;;;;6.83;6.23;;;28.50;99.90;;;;;;5052351;28;20466;-51
2021/06/27 10:00:05;;;;;;;5.20;4.80;;;28.80;99.90;;;;;;5052348;28;20852;-51
2021/06/27 10:02:59;;;;;;;5.47;4.90;;;29.10;99.90;;;;;;5052264;28;20448;-51
2021/06/27 10:05:26;;;;;;;4.90;4.50;;;30.00;99.90;;;;;;5049433;28;20444;-51
2021/06/27 10:07:53;;;;;;;5.13;4.73;;;30.60;99.90;;;;;;5070707;28;21080;-51
2021/06/27 10:10:22;;;;;;;6.20;5.70;;;29.80;99.90;;;;;;5070810;28;20446;-51
2021/06/27 10:12:49;;;;;;;6.10;5.50;;;29.80;99.90;;;;;;5068412;28;20482;-51
2021/06/27 10:15:19;;;;;;;7.07;4.50;;;30.10;99.90;;;;;;5049316;28;20439;-52
2021/06/27 10:17:47;;;;;;;7.70;4.90;;;30.50;99.90;;;;;;5048091;28;20220;-52
2021/06/27 10:20:17;;;;;;;5.57;5.17;;;30.10;99.90;;;;;;5052051;28;20451;-52
2021/06/27 10:22:45;;;;;;;5.50;5.03;;;29.00;99.90;;;;;;5051304;28;20983;-52
2021/06/27 10:25:15;;;;;;;5.87;5.33;;;28.90;99.90;;;;;;5051562;28;20463;-52
2021/06/27 10:27:48;;;;;;;6.00;5.40;;;28.80;99.90;;;;;;5052046;28;20467;-52
2021/06/27 10:30:16;;;;;;;5.30;4.80;;;29.10;99.90;;;;;;5026645;28;20540;-52
2021/06/27 10:32:43;;;;;;;5.30;4.90;;;29.30;99.90;;;;;;5055631;28;21127;-52
2021/06/27 10:35:13;;;;;;;7.53;5.03;;;29.70;99.90;;;;;;5052771;28;20526;-52
2021/06/27 10:37:42;;;;;;;5.20;4.70;;;29.50;99.90;;;;;;5058010;28;20486;-53
2021/06/27 10:40:12;;;;;;;5.23;4.83;;;30.60;99.90;;;;;;5052494;28;20509;-53
2021/06/27 10:42:58;;;;;;;4.97;4.50;;;31.10;99.90;;;;;;5060386;28;20509;-52
2021/06/27 10:45:29;;;;;;;5.40;4.90;;;30.70;99.90;;;;;;5049151;28;20459;-52
2021/06/27 10:47:57;;;;;;;4.90;4.50;;;30.40;99.90;;;;;;5051375;28;20578;-52
2021/06/27 10:50:50;;;;;;;5.20;4.77;;;30.40;99.90;;;;;;5051819;28;20452;-53
2021/06/27 10:53:17;;;;;;;5.00;4.60;;;30.20;99.90;;;;;;5051709;28;20490;-53
2021/06/27 10:55:45;;;;;;;4.77;4.37;;;30.70;99.90;;;;;;5051444;28;20510;-52
2021/06/27 10:58:14;;;;;;;4.70;4.40;;;29.70;99.90;;;;;;5058476;28;21007;-53
2021/06/27 11:01:01;;;;;;;4.00;3.70;;;28.70;99.90;;;;;;5055853;28;20576;-52
2021/06/27 11:03:34;;;;;;;4.87;4.47;;;28.80;99.90;;;;;;5070472;28;20443;-52
2021/06/27 11:06:02;;;;;;;5.47;4.87;;;29.10;99.90;;;;;;5052372;28;20526;-52
2021/06/27 11:11:02;;;;;;;4.93;4.50;;;29.00;99.90;;;;;;5113562;22;20493;-59
2021/06/27 11:13:32;;;;;;;4.80;4.50;;;28.40;99.90;;;;;;5086709;28;20457;-59
2021/06/27 11:16:14;;;;;;;4.83;4.43;;;28.50;99.90;;;;;;5090087;28;20456;-59
2021/06/27 11:18:43;;;;;;;4.33;3.93;;;28.50;99.90;;;;;;5087956;28;20481;-59
2021/06/27 11:21:19;;;;;;;5.30;4.90;;;28.40;99.90;;;;;;5090779;28;20442;-59
2021/06/27 11:23:58;;;;;;;4.60;4.30;;;27.80;99.90;;;;;;5088992;28;20445;-59
2021/06/27 11:26:58;;;;;;;4.50;4.10;;;28.00;99.90;;;;;;5090804;28;20438;-59
2021/06/27 11:29:49;;;;;;;4.00;3.80;;;28.50;99.90;;;;;;5071645;28;20463;-59
2021/06/27 11:32:43;;;;;;;4.40;4.10;;;28.70;99.90;;;;;;5077515;28;20500;-59
2021/06/27 11:35:11;;;;;;;4.63;4.33;;;28.90;99.90;;;;;;5082758;28;20536;-58
2021/06/27 11:37:47;;;;;;;5.27;4.87;;;28.40;99.90;;;;;;5083603;28;20549;-59
2021/06/27 11:40:15;;;;;;;4.03;3.80;;;28.60;99.90;;;;;;5079515;28;20478;-59
2021/06/27 11:42:59;;;;;;;5.60;4.47;;;29.00;99.90;;;;;;5083143;28;20457;-60
2021/06/27 11:45:47;;;;;;;3.73;3.43;;;29.20;99.90;;;;;;5081537;28;20462;-59
2021/06/27 11:48:14;;;;;;;5.80;3.80;;;29.40;99.90;;;;;;5079359;28;20458;-59
2021/06/27 11:50:51;;;;;;;4.53;4.20;;;28.80;99.90;;;;;;5077519;28;20494;-59
2021/06/27 11:53:22;;;;;;;5.40;4.10;;;28.50;99.90;;;;;;5078749;28;20485;-61
2021/06/27 11:56:04;;;;;;;4.50;4.20;;;28.80;99.90;;;;;;5078461;28;20454;-60
2021/06/27 11:58:32;;;;;;;6.20;4.10;;;28.80;99.90;;;;;;5083669;28;20461;-59
2021/06/27 12:01:09;;;;;;;5.87;3.90;;;28.90;99.90;;;;;;5086359;28;20472;-59
2021/06/27 12:03:48;;;;;;;4.10;3.80;;;29.00;99.90;;;;;;5085670;28;20454;-59
2021/06/27 12:06:16;;;;;;;4.00;3.70;;;29.50;99.90;;;;;;5084308;28;21113;-59
2021/06/27 12:08:45;;;;;;;4.03;3.77;;;29.30;99.90;;;;;;5071196;28;20447;-60
2021/06/27 12:11:12;;;;;;;4.77;3.70;;;29.40;99.90;;;;;;5075382;28;20462;-59
2021/06/27 12:13:39;;;;;;;4.20;3.90;;;29.40;99.90;;;;;;5079419;28;20466;-59
2021/06/27 12:16:09;;;;;;;3.67;3.47;;;28.70;99.90;;;;;;5081549;28;20828;-59
2021/06/27 12:18:37;;;;;;;4.23;3.93;;;28.80;99.90;;;;;;5081381;28;20461;-59
2021/06/27 12:21:07;;;;;;;6.53;4.00;;;28.70;99.90;;;;;;5083484;28;20982;-58
2021/06/27 12:23:37;;;;;;;4.30;3.90;;;28.90;99.90;;;;;;5082909;28;20543;-59
2021/06/27 12:26:06;;;;;;;3.83;3.63;;;29.10;99.90;;;;;;5085289;28;20457;-60
2021/06/27 12:28:37;;;;;;;3.50;3.30;;;29.30;99.90;;;;;;5082190;28;20519;-59
2021/06/27 12:31:15;;;;;;;4.20;3.90;;;29.20;99.90;;;;;;5084689;28;20466;-63
2021/06/27 12:33:44;;;;;;;3.60;3.30;;;29.10;99.90;;;;;;5086229;28;20458;-58
2021/06/27 12:36:13;;;;;;;3.73;3.53;;;28.80;99.90;;;;;;5081217;28;20508;-59
2021/06/27 12:38:42;;;;;;;3.43;3.23;;;28.80;99.90;;;;;;5083635;28;20875;-60
2021/06/27 12:41:10;;;;;;;3.57;3.37;;;28.80;99.90;;;;;;5085087;28;20515;-59
2021/06/27 12:43:40;;;;;;;4.03;3.73;;;28.80;99.90;;;;;;5082220;28;20458;-59
2021/06/27 12:46:31;;;;;;;3.50;3.20;;;29.10;99.90;;;;;;5083968;28;21497;-59
2021/06/27 12:49:23;;;;;;;3.27;3.07;;;28.80;99.90;;;;;;5083906;28;20477;-59
2021/06/27 12:51:58;;;;;;;3.10;2.90;;;28.90;99.90;;;;;;5068572;28;20995;-59
2021/06/27 12:54:27;;;;;;;3.23;3.03;;;29.10;99.90;;;;;;5082721;28;20492;-58
2021/06/27 12:57:02;;;;;;;3.00;2.80;;;29.20;99.90;;;;;;5082325;28;20515;-59
2021/06/27 12:59:44;;;;;;;3.07;2.87;;;29.20;99.20;;;;;;5083689;28;20487;-59